Time;durP1;ratioP1;P1;durP2;ratioP2;P2;SDS_P1;SDS_P2;PMS_P1;PMS_P2;Temp;Humidity;BMP_temperature;BMP_pressure;BME280_temperature;BME280_humidity;BME280_pressure;Samples;Min_cycle;Max_cycle;Signal;HPM_P1;HPM_P2
2022/07/19 00:00:16;;;;;;;5.45;1.65;;;25.00;40.00;;;;;;5068111;28;20020;-82
2022/07/19 00:02:47;;;;;;;9.63;2.05;;;25.00;39.90;;;;;;5061375;28;20511;-83
2022/07/19 00:05:13;;;;;;;5.57;2.17;;;25.00;40.10;;;;;;5053073;28;20025;-83
2022/07/19 00:07:47;;;;;;;7.47;1.70;;;25.00;39.80;;;;;;5056799;28;20392;-82
2022/07/19 00:10:15;;;;;;;13.82;1.73;;;25.00;39.90;;;;;;5054167;28;20025;-83
2022/07/19 00:12:41;;;;;;;4.15;2.00;;;25.00;39.80;;;;;;5052650;28;20458;-83
2022/07/19 00:15:09;;;;;;;17.60;2.42;;;24.90;39.80;;;;;;5065791;28;20076;-82
2022/07/19 00:17:39;;;;;;;6.13;2.40;;;25.00;39.90;;;;;;5053973;28;20392;-83
2022/07/19 00:20:05;;;;;;;9.98;2.10;;;25.00;40.00;;;;;;5053688;28;20484;-83
2022/07/19 00:22:31;;;;;;;6.88;2.10;;;25.00;39.90;;;;;;5068601;28;20024;-82
2022/07/19 00:24:58;;;;;;;4.78;1.80;;;24.90;39.90;;;;;;5058138;28;20021;-83
2022/07/19 00:27:24;;;;;;;7.93;2.10;;;24.90;40.00;;;;;;5059796;28;20029;-83
2022/07/19 00:29:53;;;;;;;14.68;2.15;;;24.90;40.00;;;;;;5056772;28;20048;-83
2022/07/19 00:32:19;;;;;;;13.07;2.22;;;24.90;40.00;;;;;;5071170;28;20024;-83
2022/07/19 00:34:47;;;;;;;5.30;1.77;;;24.90;40.10;;;;;;5060761;28;20392;-84
2022/07/19 00:37:13;;;;;;;15.55;2.17;;;24.80;40.00;;;;;;5053892;28;20384;-83
2022/07/19 00:39:39;;;;;;;4.97;1.60;;;24.90;40.00;;;;;;5064006;28;20031;-83
2022/07/19 00:42:05;;;;;;;8.15;1.90;;;24.90;40.00;;;;;;5059108;28;20480;-83
2022/07/19 00:44:31;;;;;;;6.22;2.05;;;24.90;39.90;;;;;;5056466;28;20037;-84
2022/07/19 00:46:57;;;;;;;7.32;2.45;;;24.90;40.10;;;;;;5070223;28;20033;-83
2022/07/19 00:49:25;;;;;;;9.95;2.05;;;24.90;39.80;;;;;;5052979;28;20086;-83
2022/07/19 00:51:52;;;;;;;5.80;1.80;;;24.90;39.90;;;;;;5061349;28;20052;-83
2022/07/19 00:54:26;;;;;;;12.02;2.45;;;24.90;40.00;;;;;;5055784;28;20021;-83
2022/07/19 00:56:52;;;;;;;4.63;1.85;;;24.80;40.10;;;;;;5071553;28;20500;-83
2022/07/19 00:59:26;;;;;;;7.10;2.55;;;24.80;40.00;;;;;;5055769;28;20029;-83
2022/07/19 01:01:52;;;;;;;11.02;2.08;;;24.80;40.20;;;;;;5054800;28;20527;-83
2022/07/19 01:04:27;;;;;;;6.30;1.75;;;24.80;40.10;;;;;;5054001;28;20033;-83
2022/07/19 01:06:53;;;;;;;5.18;2.17;;;24.80;40.20;;;;;;5053801;28;20481;-83
2022/07/19 01:09:22;;;;;;;4.80;1.85;;;24.80;40.30;;;;;;5053060;28;20025;-84
2022/07/19 01:12:04;;;;;;;4.20;1.92;;;24.80;40.10;;;;;;5052812;28;20046;-84
2022/07/19 01:14:31;;;;;;;6.40;2.15;;;24.80;40.70;;;;;;5066254;28;20215;-83
2022/07/19 01:17:02;;;;;;;4.55;2.47;;;24.70;40.20;;;;;;5055074;28;20017;-83
2022/07/19 01:19:28;;;;;;;9.52;1.67;;;24.80;40.20;;;;;;5057953;28;20546;-83
2022/07/19 01:21:53;;;;;;;6.50;1.70;;;24.70;40.30;;;;;;5052720;28;20222;-83
2022/07/19 01:24:20;;;;;;;3.67;1.88;;;24.70;40.30;;;;;;5057139;28;20479;-83
2022/07/19 01:26:45;;;;;;;11.18;2.05;;;24.70;40.40;;;;;;5062455;28;20032;-82
2022/07/19 01:29:24;;;;;;;5.57;2.33;;;24.70;40.50;;;;;;5058121;28;20040;-83
2022/07/19 01:31:50;;;;;;;6.60;2.30;;;24.70;40.50;;;;;;5051963;28;20032;-83
2022/07/19 01:34:15;;;;;;;5.85;2.25;;;24.60;40.60;;;;;;5060753;28;20021;-83
2022/07/19 01:36:41;;;;;;;10.38;2.35;;;24.70;40.30;;;;;;5062588;28;20032;-82
2022/07/19 01:39:10;;;;;;;19.98;3.65;;;24.60;40.40;;;;;;5056530;28;20056;-83
2022/07/19 01:41:35;;;;;;;2.67;1.40;;;24.70;40.40;;;;;;5061774;28;20060;-82
2022/07/19 01:44:03;;;;;;;6.78;1.95;;;24.70;40.30;;;;;;5052466;28;20122;-82
2022/07/19 01:46:28;;;;;;;9.38;2.20;;;24.70;40.50;;;;;;5053002;28;20389;-82
2022/07/19 01:48:55;;;;;;;5.68;2.20;;;24.70;40.40;;;;;;5051981;28;20033;-83
2022/07/19 01:51:20;;;;;;;8.57;2.42;;;24.60;40.60;;;;;;5063678;28;20104;-82
2022/07/19 01:53:58;;;;;;;3.60;1.88;;;24.60;40.60;;;;;;5051491;28;20905;-82
2022/07/19 01:56:23;;;;;;;6.30;2.30;;;24.60;40.60;;;;;;5052367;28;20045;-82
2022/07/19 01:58:51;;;;;;;7.45;2.20;;;24.50;41.00;;;;;;5052217;28;20559;-82
2022/07/19 02:01:16;;;;;;;2.25;1.80;;;24.50;40.80;;;;;;5053798;28;20025;-82
2022/07/19 02:03:42;;;;;;;4.13;2.40;;;24.50;40.60;;;;;;5063510;28;20373;-82
2022/07/19 02:06:08;;;;;;;4.32;1.90;;;24.50;40.60;;;;;;5065696;28;20036;-82
2022/07/19 02:08:35;;;;;;;3.75;2.22;;;24.50;40.90;;;;;;5070663;28;20372;-82
2022/07/19 02:11:34;;;;;;;2.33;1.77;;;24.50;41.10;;;;;;5063124;28;20079;-82
2022/07/19 02:13:47;;;;;;;5.25;2.00;;;24.40;40.90;;;;;;5058668;28;20136;-82
2022/07/19 02:16:20;;;;;;;4.82;2.03;;;24.40;40.80;;;;;;5050933;28;20481;-82
2022/07/19 02:18:45;;;;;;;4.13;2.20;;;24.40;41.00;;;;;;5052316;28;20033;-82
2022/07/19 02:21:12;;;;;;;4.18;2.40;;;24.40;41.20;;;;;;5065060;28;20094;-83
2022/07/19 02:23:37;;;;;;;4.10;2.45;;;24.30;41.50;;;;;;5056401;28;20086;-82
2022/07/19 02:26:03;;;;;;;3.55;1.83;;;24.30;41.40;;;;;;5059049;28;20025;-82
2022/07/19 02:28:28;;;;;;;7.55;2.38;;;24.20;41.80;;;;;;5055734;28;20029;-82
2022/07/19 02:30:54;;;;;;;6.72;2.03;;;24.10;43.10;;;;;;5058414;28;20036;-82
2022/07/19 02:33:20;;;;;;;2.20;2.00;;;23.90;43.60;;;;;;5066169;28;20450;-82
2022/07/19 02:35:46;;;;;;;3.03;1.92;;;23.70;44.40;;;;;;5050402;28;20052;-82
2022/07/19 02:38:15;;;;;;;4.32;2.92;;;23.50;44.80;;;;;;5053690;28;20029;-82
2022/07/19 02:40:41;;;;;;;4.60;1.75;;;23.40;45.50;;;;;;5064766;28;20075;-82
2022/07/19 02:43:08;;;;;;;2.78;1.90;;;23.20;46.20;;;;;;5052240;28;20067;-82
2022/07/19 02:45:34;;;;;;;2.00;1.50;;;23.10;47.20;;;;;;5056296;28;20033;-82
2022/07/19 02:48:00;;;;;;;6.65;2.13;;;22.90;47.90;;;;;;5054721;28;20040;-82
2022/07/19 02:50:26;;;;;;;5.88;2.15;;;22.80;48.40;;;;;;5068047;28;20576;-82
2022/07/19 02:52:51;;;;;;;5.53;2.38;;;22.60;48.60;;;;;;5056135;28;20108;-82
2022/07/19 02:55:17;;;;;;;5.85;1.92;;;22.40;49.60;;;;;;5069453;28;20020;-82
2022/07/19 02:57:48;;;;;;;6.00;2.47;;;22.20;50.00;;;;;;5071023;28;20028;-82
2022/07/19 03:00:14;;;;;;;3.33;2.17;;;22.10;50.90;;;;;;5071584;28;20013;-82
2022/07/19 03:02:43;;;;;;;4.68;2.05;;;21.90;51.60;;;;;;5063845;28;20046;-82
2022/07/19 03:05:09;;;;;;;5.43;2.17;;;21.70;52.20;;;;;;5067259;28;20028;-81
2022/07/19 03:07:37;;;;;;;6.13;1.80;;;21.60;53.10;;;;;;5074701;28;20020;-82
2022/07/19 03:10:04;;;;;;;7.47;2.15;;;21.40;54.10;;;;;;5063714;28;20029;-82
2022/07/19 03:12:29;;;;;;;6.90;2.50;;;21.30;54.20;;;;;;5054591;28;20044;-82
2022/07/19 03:14:59;;;;;;;4.35;2.33;;;21.20;54.80;;;;;;5059736;28;20468;-82
2022/07/19 03:17:24;;;;;;;4.68;2.05;;;21.10;55.10;;;;;;5054448;28;20033;-83
2022/07/19 03:20:06;;;;;;;8.75;2.30;;;21.00;55.90;;;;;;5061226;28;20021;-82
2022/07/19 03:22:31;;;;;;;6.47;2.35;;;20.90;57.40;;;;;;5055448;28;20036;-82
2022/07/19 03:24:57;;;;;;;4.63;2.03;;;20.70;57.70;;;;;;5054453;28;20384;-81
2022/07/19 03:27:22;;;;;;;7.38;1.92;;;20.60;58.80;;;;;;5072951;28;20061;-82
2022/07/19 03:29:51;;;;;;;7.80;2.25;;;20.60;59.30;;;;;;5056463;28;20036;-82
2022/07/19 03:32:16;;;;;;;5.53;1.60;;;20.50;59.70;;;;;;5056270;28;20031;-82
2022/07/19 03:34:43;;;;;;;9.43;2.30;;;20.40;61.80;;;;;;5053065;28;20016;-82
2022/07/19 03:37:08;;;;;;;6.97;2.08;;;20.30;62.90;;;;;;5058774;28;20041;-81
2022/07/19 03:39:35;;;;;;;5.07;2.40;;;20.30;64.00;;;;;;5067396;28;20121;-82
2022/07/19 03:42:00;;;;;;;6.00;2.30;;;20.20;65.30;;;;;;5074132;28;20033;-82
2022/07/19 03:44:33;;;;;;;5.13;2.17;;;20.10;67.20;;;;;;5068815;28;20043;-81
2022/07/19 03:46:58;;;;;;;3.38;2.22;;;20.10;70.30;;;;;;5056369;28;20744;-81
2022/07/19 03:49:24;;;;;;;3.08;1.88;;;20.00;72.90;;;;;;5062718;28;20074;-81
2022/07/19 03:51:50;;;;;;;2.72;1.90;;;20.00;73.50;;;;;;5056668;28;20020;-81
2022/07/19 03:54:16;;;;;;;3.85;1.98;;;20.00;75.00;;;;;;5066809;28;20063;-81
2022/07/19 03:56:42;;;;;;;6.00;2.30;;;19.90;79.50;;;;;;5084253;28;20056;-81
2022/07/19 03:59:08;;;;;;;4.20;2.55;;;19.90;81.10;;;;;;5074548;28;20036;-81
2022/07/19 04:01:33;;;;;;;4.88;2.72;;;19.90;83.80;;;;;;5063371;28;20119;-81
2022/07/19 04:03:59;;;;;;;5.57;2.20;;;19.80;86.00;;;;;;5066402;28;20060;-81
2022/07/19 04:06:25;;;;;;;6.05;2.42;;;19.80;87.80;;;;;;5073003;28;20036;-81
2022/07/19 04:08:50;;;;;;;5.40;2.03;;;19.70;91.30;;;;;;5074135;28;20108;-81
2022/07/19 04:11:17;;;;;;;2.50;2.10;;;19.70;94.70;;;;;;5073450;28;20052;-81
2022/07/19 04:13:43;;;;;;;2.45;1.90;;;19.70;96.40;;;;;;5061318;28;20033;-81
2022/07/19 04:16:08;;;;;;;3.55;2.10;;;19.70;97.50;;;;;;5054217;28;20029;-81
2022/07/19 04:18:34;;;;;;;3.70;1.98;;;19.80;99.90;;;;;;5062687;28;20162;-81
2022/07/19 04:21:01;;;;;;;4.20;1.98;;;19.80;99.90;;;;;;5059173;28;20082;-81
2022/07/19 04:23:30;;;;;;;6.03;2.15;;;19.80;99.90;;;;;;5055740;28;20048;-81
2022/07/19 04:25:56;;;;;;;4.10;2.25;;;19.80;99.90;;;;;;5061451;28;20056;-81
2022/07/19 04:28:22;;;;;;;2.67;1.90;;;19.80;99.90;;;;;;5054433;28;20123;-81
2022/07/19 04:30:49;;;;;;;5.70;2.10;;;19.80;99.90;;;;;;5063255;28;20056;-81
2022/07/19 04:33:17;;;;;;;4.47;2.28;;;19.80;99.90;;;;;;5057807;28;20028;-81
2022/07/19 04:35:45;;;;;;;5.68;2.40;;;19.80;99.90;;;;;;5062309;28;20048;-81
2022/07/19 04:38:10;;;;;;;6.18;2.33;;;19.80;99.90;;;;;;5065365;28;20029;-81
2022/07/19 04:40:36;;;;;;;3.85;1.77;;;19.80;99.90;;;;;;5063602;28;20036;-81
2022/07/19 04:43:02;;;;;;;2.78;1.85;;;19.80;99.90;;;;;;5057251;28;20041;-81
2022/07/19 04:45:33;;;;;;;2.53;1.90;;;19.90;99.90;;;;;;5067257;28;20051;-81
2022/07/19 04:48:00;;;;;;;4.07;1.95;;;19.90;99.90;;;;;;5054948;28;20078;-81
2022/07/19 04:50:27;;;;;;;2.28;1.65;;;20.00;99.90;;;;;;5058879;28;20025;-81
2022/07/19 04:52:52;;;;;;;2.97;1.85;;;20.10;99.90;;;;;;5056715;28;20024;-81
2022/07/19 04:55:20;;;;;;;1.92;1.63;;;20.10;99.90;;;;;;5070408;28;20031;-82
2022/07/19 04:57:45;;;;;;;2.03;1.33;;;20.20;99.90;;;;;;5061653;28;20125;-81
2022/07/19 05:00:12;;;;;;;5.90;2.30;;;20.30;99.90;;;;;;5053450;28;20064;-81
2022/07/19 05:02:38;;;;;;;2.13;1.90;;;20.30;99.90;;;;;;5063847;28;20040;-82
2022/07/19 05:05:05;;;;;;;4.32;2.40;;;20.40;99.90;;;;;;5052720;28;20031;-81
2022/07/19 05:07:30;;;;;;;7.57;1.92;;;20.40;99.90;;;;;;5069933;28;20040;-81
2022/07/19 05:09:57;;;;;;;6.22;2.42;;;20.50;99.90;;;;;;5061815;28;20385;-81
2022/07/19 05:12:23;;;;;;;4.80;2.15;;;20.60;99.90;;;;;;5053883;28;20361;-81
2022/07/19 05:14:48;;;;;;;3.03;2.10;;;20.60;99.90;;;;;;5067015;28;20024;-82
2022/07/19 05:17:15;;;;;;;8.23;2.45;;;20.70;99.90;;;;;;5066640;28;20021;-82
2022/07/19 05:19:41;;;;;;;5.30;2.45;;;20.80;99.90;;;;;;5071467;28;20034;-81
2022/07/19 05:22:09;;;;;;;3.55;1.95;;;20.80;99.90;;;;;;5060101;28;20392;-81
2022/07/19 05:24:34;;;;;;;2.13;1.90;;;20.90;99.90;;;;;;5055441;28;20040;-81
2022/07/19 05:27:02;;;;;;;3.83;2.13;;;21.00;99.90;;;;;;5058316;28;20106;-82
2022/07/19 05:29:27;;;;;;;4.05;2.42;;;21.10;99.90;;;;;;5052854;28;20548;-82
2022/07/19 05:31:54;;;;;;;6.50;2.33;;;21.20;99.90;;;;;;5052533;28;20029;-82
2022/07/19 05:34:19;;;;;;;9.55;2.50;;;21.30;99.90;;;;;;5052188;28;20052;-81
2022/07/19 05:36:46;;;;;;;3.67;2.35;;;21.30;99.90;;;;;;5087320;28;20024;-81
2022/07/19 05:39:11;;;;;;;4.03;2.15;;;21.40;99.90;;;;;;5056465;28;20082;-81
2022/07/19 05:41:37;;;;;;;6.20;2.83;;;21.50;99.90;;;;;;5052796;28;20111;-81
2022/07/19 05:44:03;;;;;;;4.40;2.88;;;21.70;99.90;;;;;;5062370;28;20071;-81
2022/07/19 05:46:29;;;;;;;5.55;2.60;;;21.80;99.90;;;;;;5071711;28;20033;-81
2022/07/19 05:48:54;;;;;;;3.90;2.35;;;21.90;99.90;;;;;;5073482;28;20028;-81
2022/07/19 05:51:20;;;;;;;2.97;2.20;;;21.90;99.90;;;;;;5072876;28;20021;-81
2022/07/19 05:53:45;;;;;;;5.15;2.20;;;22.10;99.90;;;;;;5071975;28;20452;-81
2022/07/19 05:56:12;;;;;;;2.15;1.77;;;22.20;99.90;;;;;;5052125;28;20386;-81
2022/07/19 05:58:38;;;;;;;3.75;2.25;;;22.30;99.90;;;;;;5054934;28;20032;-81
2022/07/19 06:01:22;;;;;;;3.72;2.00;;;22.40;99.90;;;;;;5052421;28;20035;-81
2022/07/19 06:03:52;;;;;;;2.30;1.77;;;22.50;99.90;;;;;;5058829;28;20025;-81
2022/07/19 06:06:20;;;;;;;6.15;2.60;;;22.60;99.90;;;;;;5063729;28;20991;-81
2022/07/19 06:08:46;;;;;;;3.58;1.80;;;22.70;99.90;;;;;;5065627;28;20063;-81
2022/07/19 06:11:13;;;;;;;5.95;2.42;;;22.80;99.90;;;;;;5055466;28;20090;-81
2022/07/19 06:13:39;;;;;;;4.75;2.03;;;22.90;99.90;;;;;;5066997;28;20060;-81
2022/07/19 06:16:05;;;;;;;5.88;2.55;;;23.00;99.90;;;;;;5054256;28;20114;-81
2022/07/19 06:18:34;;;;;;;5.05;1.92;;;23.10;99.90;;;;;;5052168;28;20029;-81
2022/07/19 06:21:02;;;;;;;5.93;2.22;;;23.30;99.90;;;;;;5055126;28;20100;-81
2022/07/19 06:23:28;;;;;;;3.50;2.03;;;23.40;99.90;;;;;;5055819;28;20037;-81
2022/07/19 06:25:54;;;;;;;4.03;2.53;;;23.50;99.90;;;;;;5066717;28;20423;-81
2022/07/19 06:28:19;;;;;;;3.90;2.25;;;23.60;98.80;;;;;;5056339;28;20128;-81
2022/07/19 06:30:45;;;;;;;12.27;2.65;;;23.80;94.10;;;;;;5055099;28;20021;-81
2022/07/19 06:33:10;;;;;;;8.23;2.30;;;23.90;92.40;;;;;;5055766;28;20032;-81
2022/07/19 06:35:36;;;;;;;6.60;2.60;;;24.00;91.10;;;;;;5056202;28;20083;-81
2022/07/19 06:38:01;;;;;;;5.75;2.55;;;24.20;82.70;;;;;;5056402;28;20021;-81
2022/07/19 06:40:28;;;;;;;9.48;2.38;;;24.30;72.90;;;;;;5056223;28;20060;-81
2022/07/19 06:42:54;;;;;;;7.82;2.08;;;24.50;71.10;;;;;;5055993;28;20511;-81
2022/07/19 06:45:19;;;;;;;6.70;2.90;;;24.60;69.50;;;;;;5055869;28;20088;-81
2022/07/19 06:47:46;;;;;;;3.78;2.35;;;24.70;66.20;;;;;;5056117;28;20035;-81
2022/07/19 06:50:13;;;;;;;7.07;2.28;;;24.80;64.10;;;;;;5055336;28;20025;-81
2022/07/19 06:52:39;;;;;;;21.48;3.08;;;24.90;61.60;;;;;;5055834;28;20507;-81
2022/07/19 06:55:04;;;;;;;3.80;2.30;;;24.90;60.60;;;;;;5054383;28;20064;-81
2022/07/19 06:57:30;;;;;;;8.48;2.35;;;25.00;57.40;;;;;;5055590;28;20059;-81
2022/07/19 06:59:56;;;;;;;5.07;2.33;;;25.10;52.90;;;;;;5055595;28;20086;-81
2022/07/19 07:02:21;;;;;;;3.72;2.40;;;25.10;51.40;;;;;;5055772;28;20020;-81
2022/07/19 07:04:48;;;;;;;7.07;2.25;;;25.20;50.30;;;;;;5055283;28;20424;-81
2022/07/19 07:07:13;;;;;;;2.67;2.00;;;25.30;49.30;;;;;;5055565;28;20036;-81
2022/07/19 07:09:39;;;;;;;9.45;2.40;;;25.30;48.40;;;;;;5055607;28;20025;-81
2022/07/19 07:12:05;;;;;;;8.45;2.42;;;25.40;48.30;;;;;;5055313;28;20051;-81
2022/07/19 07:14:31;;;;;;;6.50;2.50;;;25.50;47.40;;;;;;5055437;28;20469;-81
2022/07/19 07:16:57;;;;;;;3.42;2.13;;;25.50;47.10;;;;;;5055417;28;20138;-81
2022/07/19 07:19:22;;;;;;;10.00;2.58;;;25.60;47.00;;;;;;5055258;28;20029;-81
2022/07/19 07:21:50;;;;;;;4.78;2.30;;;25.60;46.50;;;;;;5055386;28;20033;-81
2022/07/19 07:24:15;;;;;;;9.82;2.30;;;25.60;46.50;;;;;;5055236;28;20427;-81
2022/07/19 07:26:42;;;;;;;2.88;1.98;;;25.70;46.30;;;;;;5054573;28;20152;-81
2022/07/19 07:29:07;;;;;;;4.32;2.17;;;25.70;46.50;;;;;;5055144;28;20481;-81
2022/07/19 07:31:34;;;;;;;6.68;2.17;;;25.80;46.30;;;;;;5054963;28;20031;-81
2022/07/19 07:33:59;;;;;;;6.85;2.70;;;25.80;46.40;;;;;;5054354;28;20021;-81
2022/07/19 07:36:26;;;;;;;7.22;2.38;;;25.90;47.50;;;;;;5054968;28;20025;-81
2022/07/19 07:38:51;;;;;;;12.73;2.50;;;26.00;47.20;;;;;;5055051;28;20057;-81
2022/07/19 07:41:17;;;;;;;6.60;3.00;;;26.00;46.70;;;;;;5055138;28;20114;-81
2022/07/19 07:43:42;;;;;;;9.40;2.38;;;26.20;46.70;;;;;;5053610;28;20384;-81
2022/07/19 07:46:08;;;;;;;3.60;2.25;;;26.30;46.50;;;;;;5054761;28;20025;-81
2022/07/19 07:48:34;;;;;;;4.00;1.77;;;26.30;45.90;;;;;;5054356;28;20032;-81
2022/07/19 07:51:01;;;;;;;11.50;2.20;;;26.40;45.50;;;;;;5054953;28;20040;-81
2022/07/19 07:53:26;;;;;;;4.90;2.10;;;26.40;45.40;;;;;;5053468;28;20044;-81
2022/07/19 07:55:53;;;;;;;5.65;2.30;;;26.50;45.00;;;;;;5054817;28;20102;-81
2022/07/19 07:58:19;;;;;;;4.78;2.47;;;26.50;45.00;;;;;;5054545;28;20056;-81
2022/07/19 08:00:50;;;;;;;4.93;2.45;;;26.60;44.40;;;;;;5059632;28;20117;-81
2022/07/19 08:03:17;;;;;;;10.70;2.53;;;26.60;44.80;;;;;;5060502;28;20464;-81
2022/07/19 08:05:47;;;;;;;5.30;2.55;;;26.70;44.20;;;;;;5059728;28;20167;-82
2022/07/19 08:08:16;;;;;;;6.05;2.40;;;26.70;44.00;;;;;;5063758;28;20025;-81
2022/07/19 08:10:50;;;;;;;14.35;3.25;;;26.80;43.40;;;;;;5054305;28;20032;-88
2022/07/19 08:13:15;;;;;;;5.28;2.80;;;26.90;43.60;;;;;;5054783;28;20123;-81
2022/07/19 08:15:42;;;;;;;7.63;2.58;;;27.00;43.70;;;;;;5054962;28;20135;-81
2022/07/19 08:18:07;;;;;;;3.95;2.03;;;27.10;43.60;;;;;;5080893;28;20433;-82
2022/07/19 08:20:33;;;;;;;10.35;2.47;;;27.20;43.90;;;;;;5074316;28;20108;-81
2022/07/19 08:22:58;;;;;;;5.75;2.20;;;27.30;43.40;;;;;;5065292;28;20036;-81
2022/07/19 08:25:24;;;;;;;8.48;2.55;;;27.40;42.30;;;;;;5053681;28;20084;-81
2022/07/19 08:27:49;;;;;;;8.45;2.30;;;27.50;42.80;;;;;;5052898;28;20021;-81
2022/07/19 08:30:15;;;;;;;12.73;2.03;;;27.60;42.90;;;;;;5062433;28;20040;-81
2022/07/19 08:32:41;;;;;;;4.75;2.10;;;27.60;42.50;;;;;;5072969;28;20028;-81
2022/07/19 08:35:07;;;;;;;4.57;2.42;;;27.70;41.00;;;;;;5062680;28;20031;-80
2022/07/19 08:37:34;;;;;;;4.93;2.42;;;27.70;41.00;;;;;;5065867;28;20528;-80
2022/07/19 08:39:59;;;;;;;9.55;2.58;;;27.80;40.70;;;;;;5056499;28;20029;-80
2022/07/19 08:42:26;;;;;;;10.02;2.35;;;27.90;41.70;;;;;;5071330;28;20041;-81
2022/07/19 08:44:53;;;;;;;14.55;2.20;;;27.90;41.90;;;;;;5054935;28;20167;-81
2022/07/19 08:47:21;;;;;;;7.65;2.75;;;28.00;41.30;;;;;;5065040;28;20036;-81
2022/07/19 08:49:46;;;;;;;9.68;2.30;;;28.00;41.40;;;;;;5060771;28;20028;-81
2022/07/19 08:52:12;;;;;;;5.60;2.17;;;28.10;40.30;;;;;;5062048;28;20033;-81
2022/07/19 08:54:39;;;;;;;7.95;2.28;;;28.10;40.10;;;;;;5060302;28;20036;-81
2022/07/19 08:59:53;;;;;;;10.77;2.80;;;28.20;40.10;;;;;;5053323;28;20162;-81
2022/07/19 09:02:18;;;;;;;6.50;2.35;;;28.20;40.00;;;;;;5056314;28;20484;-81
2022/07/19 09:05:07;;;;;;;4.20;2.20;;;28.30;39.80;;;;;;5072243;28;20031;-81
2022/07/19 09:07:35;;;;;;;6.50;2.55;;;28.40;39.90;;;;;;5070834;28;20082;-81
2022/07/19 09:10:20;;;;;;;3.00;2.10;;;28.40;39.10;;;;;;5061535;28;20472;-81
2022/07/19 09:13:05;;;;;;;5.63;2.38;;;28.50;39.70;;;;;;5053206;28;20037;-81
2022/07/19 09:15:40;;;;;;;;;;;28.60;38.90;;;;;;5064398;28;20028;-81
2022/07/19 09:18:15;;;;;;;10.82;2.30;;;28.70;39.50;;;;;;5059048;28;19908;-81
2022/07/19 09:20:41;;;;;;;11.90;2.20;;;28.80;38.90;;;;;;5059241;28;20013;-82
2022/07/19 09:23:08;;;;;;;7.95;2.10;;;28.90;38.50;;;;;;5054101;28;20465;-81
2022/07/19 09:25:39;;;;;;;6.60;1.80;;;29.00;38.20;;;;;;5053004;28;20303;-81
2022/07/19 09:28:06;;;;;;;7.00;2.20;;;29.10;37.90;;;;;;5056267;28;20020;-81
2022/07/19 09:30:56;;;;;;;6.00;2.30;;;29.10;37.30;;;;;;5059516;28;20031;-81
2022/07/19 09:33:24;;;;;;;6.18;2.20;;;29.10;37.50;;;;;;5067166;28;20112;-81
2022/07/19 09:35:53;;;;;;;6.40;1.70;;;29.20;36.30;;;;;;5065606;28;20021;-81
2022/07/19 09:38:22;;;;;;;5.78;1.70;;;29.20;36.80;;;;;;5060025;28;20020;-81
2022/07/19 09:40:50;;;;;;;6.25;2.08;;;29.20;37.30;;;;;;5066197;28;20033;-81
2022/07/19 09:43:16;;;;;;;5.75;1.90;;;29.30;37.60;;;;;;5072810;28;20025;-81
2022/07/19 09:45:42;;;;;;;10.50;2.67;;;29.40;37.30;;;;;;5072647;28;20016;-81
2022/07/19 09:48:08;;;;;;;4.50;1.95;;;29.40;37.20;;;;;;5067012;28;20031;-81
2022/07/19 09:50:33;;;;;;;5.68;1.85;;;29.50;37.00;;;;;;5054552;28;20029;-81
2022/07/19 09:53:02;;;;;;;5.55;2.08;;;29.50;36.90;;;;;;5062263;28;20028;-81
2022/07/19 09:55:29;;;;;;;3.55;2.00;;;29.50;36.70;;;;;;5070918;28;20370;-82
2022/07/19 09:57:57;;;;;;;4.80;2.03;;;29.50;36.50;;;;;;5052984;28;20020;-82
2022/07/19 10:00:24;;;;;;;3.05;1.90;;;29.50;36.40;;;;;;5067265;28;20107;-82
2022/07/19 10:02:53;;;;;;;5.95;2.35;;;29.60;35.70;;;;;;5073232;28;20040;-82
2022/07/19 10:05:20;;;;;;;3.45;1.65;;;29.60;35.90;;;;;;5059694;28;20020;-82
2022/07/19 10:07:47;;;;;;;3.35;1.73;;;29.70;36.40;;;;;;5068242;28;20506;-81
2022/07/19 10:10:15;;;;;;;12.05;1.77;;;29.70;35.70;;;;;;5072582;28;20021;-82
2022/07/19 10:12:43;;;;;;;9.50;2.03;;;29.80;35.40;;;;;;5056363;28;20033;-81
2022/07/19 10:15:10;;;;;;;9.68;2.10;;;29.90;35.30;;;;;;5073933;28;20048;-81
2022/07/19 10:17:57;;;;;;;5.82;1.60;;;30.00;34.90;;;;;;5074745;28;20025;-82
2022/07/19 10:20:24;;;;;;;7.75;1.83;;;30.10;34.40;;;;;;5063046;28;20084;-81
2022/07/19 10:22:50;;;;;;;3.55;1.70;;;30.20;34.00;;;;;;5056527;28;20033;-82
2022/07/19 10:25:17;;;;;;;5.93;2.13;;;30.20;33.80;;;;;;5054845;28;20044;-81
2022/07/19 10:27:54;;;;;;;4.30;1.50;;;30.30;34.10;;;;;;5062641;28;20033;-82
2022/07/19 10:30:25;;;;;;;5.18;2.03;;;30.40;33.30;;;;;;5076237;28;20040;-82
2022/07/19 10:32:53;;;;;;;12.45;2.03;;;30.40;33.90;;;;;;5074653;28;20119;-81
2022/07/19 10:35:30;;;;;;;10.20;2.25;;;30.50;33.20;;;;;;5075802;28;20373;-82
2022/07/19 10:38:01;;;;;;;5.50;1.88;;;30.50;32.70;;;;;;5075022;28;20089;-82
2022/07/19 10:40:48;;;;;;;2.78;1.65;;;30.50;32.70;;;;;;5073045;28;20174;-82
2022/07/19 10:43:16;;;;;;;5.68;1.90;;;30.60;32.10;;;;;;5075728;28;20023;-82
2022/07/19 10:46:04;;;;;;;7.43;1.90;;;30.60;33.00;;;;;;5075886;28;20013;-81
2022/07/19 10:48:49;;;;;;;8.93;2.03;;;30.60;32.00;;;;;;5054071;28;20213;-82
2022/07/19 10:51:34;;;;;;;7.87;1.53;;;30.70;31.70;;;;;;5055284;28;20017;-82
2022/07/19 10:54:02;;;;;;;6.47;1.70;;;30.80;32.20;;;;;;5055490;28;20292;-81
2022/07/19 10:56:40;;;;;;;8.38;1.65;;;31.00;31.50;;;;;;5060729;28;20468;-81
2022/07/19 10:59:09;;;;;;;2.10;1.40;;;31.10;31.90;;;;;;5057361;28;20116;-81
2022/07/19 11:01:37;;;;;;;4.53;1.80;;;31.20;32.80;;;;;;5055416;28;20398;-81
2022/07/19 11:04:26;;;;;;;8.23;1.73;;;31.20;32.40;;;;;;5070515;28;20480;-81
2022/07/19 11:07:10;;;;;;;2.25;1.83;;;31.20;31.40;;;;;;5065794;28;20086;-82
2022/07/19 11:09:48;;;;;;;4.47;2.10;;;31.20;31.80;;;;;;5059649;28;20033;-82
2022/07/19 11:12:22;;;;;;;11.57;1.50;;;31.30;31.70;;;;;;5063569;28;20240;-82
2022/07/19 11:14:48;;;;;;;7.93;2.38;;;31.30;30.20;;;;;;5075210;28;20024;-81
2022/07/19 11:17:13;;;;;;;3.72;1.80;;;31.30;31.20;;;;;;5075297;28;20399;-82
2022/07/19 11:19:57;;;;;;;6.80;1.50;;;31.30;30.80;;;;;;5075159;28;20069;-82
2022/07/19 11:22:22;;;;;;;9.45;2.22;;;31.40;31.40;;;;;;5074109;28;20033;-82
2022/07/19 11:24:49;;;;;;;6.97;2.05;;;31.40;30.60;;;;;;5075203;28;20031;-82
2022/07/19 11:27:15;;;;;;;3.00;1.48;;;31.30;30.80;;;;;;5075389;28;20032;-82
2022/07/19 11:29:59;;;;;;;5.63;1.52;;;31.30;30.30;;;;;;5074022;28;20029;-82
2022/07/19 11:32:25;;;;;;;3.00;1.90;;;31.30;30.70;;;;;;5074848;28;20028;-82
2022/07/19 11:35:05;;;;;;;5.00;2.10;;;31.30;30.50;;;;;;5075008;28;20039;-82
2022/07/19 11:37:34;;;;;;;6.97;1.73;;;31.20;30.10;;;;;;5074926;28;20029;-82
2022/07/19 11:40:01;;;;;;;3.13;1.60;;;31.30;30.90;;;;;;5075179;28;20021;-82
2022/07/19 11:42:32;;;;;;;3.22;2.08;;;31.30;30.60;;;;;;5075061;28;20119;-82
2022/07/19 11:44:59;;;;;;;10.05;2.08;;;31.30;30.80;;;;;;5075023;28;20503;-82
2022/07/19 11:47:24;;;;;;;5.25;2.17;;;31.40;30.90;;;;;;5074418;28;20021;-82
2022/07/19 11:49:51;;;;;;;6.78;1.98;;;31.40;30.40;;;;;;5074720;28;20043;-82
2022/07/19 11:52:16;;;;;;;7.82;1.95;;;31.40;31.10;;;;;;5073691;28;20040;-82
2022/07/19 11:54:58;;;;;;;3.15;1.60;;;31.60;30.70;;;;;;5074901;28;20031;-82
2022/07/19 11:57:25;;;;;;;5.32;1.58;;;31.70;30.60;;;;;;5074929;28;20177;-82
2022/07/19 11:59:51;;;;;;;5.60;1.63;;;31.70;31.30;;;;;;5074693;28;20036;-82
2022/07/19 12:02:17;;;;;;;3.72;2.28;;;31.90;31.10;;;;;;5074046;28;20040;-82
2022/07/19 12:04:42;;;;;;;2.90;1.63;;;31.90;29.70;;;;;;5073197;28;20033;-82
2022/07/19 12:07:08;;;;;;;4.18;1.67;;;31.90;30.00;;;;;;5074388;28;20028;-82
2022/07/19 12:09:34;;;;;;;3.20;1.75;;;31.90;30.00;;;;;;5073034;28;20032;-82
2022/07/19 12:12:15;;;;;;;5.45;2.45;;;32.00;29.80;;;;;;5074453;28;20032;-82
2022/07/19 12:14:41;;;;;;;7.72;1.90;;;32.00;30.00;;;;;;5074304;28;20078;-82
2022/07/19 12:17:16;;;;;;;9.77;2.15;;;32.00;30.30;;;;;;5072663;28;20480;-82
2022/07/19 12:19:45;;;;;;;9.35;1.80;;;32.00;30.50;;;;;;5074021;28;20029;-82
2022/07/19 12:22:33;;;;;;;7.82;2.03;;;32.00;30.30;;;;;;5071577;28;20020;-82
2022/07/19 12:24:59;;;;;;;12.95;2.53;;;32.10;30.40;;;;;;5053535;28;20120;-82
2022/07/19 12:27:27;;;;;;;8.70;1.95;;;32.10;29.90;;;;;;5054037;28;20103;-82
2022/07/19 12:29:54;;;;;;;7.85;2.28;;;32.10;30.20;;;;;;5055277;28;20029;-82
2022/07/19 12:32:32;;;;;;;8.77;2.28;;;32.20;29.80;;;;;;5069275;28;20023;-82
2022/07/19 12:35:01;;;;;;;3.85;1.92;;;32.30;30.10;;;;;;5053420;28;20029;-82
2022/07/19 12:37:35;;;;;;;6.20;2.28;;;32.30;30.10;;;;;;5054122;28;20641;-82
2022/07/19 12:40:13;;;;;;;6.63;2.15;;;32.50;30.50;;;;;;5053947;28;20031;-82
2022/07/19 12:42:43;;;;;;;5.95;1.98;;;32.60;29.90;;;;;;5061570;28;20028;-82
2022/07/19 12:45:12;;;;;;;7.15;2.30;;;32.70;29.40;;;;;;5053597;28;20039;-82
2022/07/19 12:47:37;;;;;;;2.88;2.08;;;32.70;29.20;;;;;;5053067;28;20104;-82
2022/07/19 12:50:04;;;;;;;13.70;2.70;;;32.70;29.10;;;;;;5066069;28;20185;-79
2022/07/19 12:52:30;;;;;;;13.10;2.55;;;32.60;29.80;;;;;;5061189;28;20024;-80